Time;durP1;ratioP1;P1;durP2;ratioP2;P2;SDS_P1;SDS_P2;PMS_P1;PMS_P2;Temp;Humidity;BMP_temperature;BMP_pressure;BME280_temperature;BME280_humidity;BME280_pressure;Samples;Min_cycle;Max_cycle;Signal;HPM_P1;HPM_P2
2022/04/12 00:00:28;;;;;;;16.10;13.50;;;11.40;99.90;;;11.57;59.47;100890.38;5075782;28;20037;-63
2022/04/12 00:02:56;;;;;;;21.95;13.63;;;11.40;99.90;;;11.72;59.19;100892.03;5076026;28;20044;-63
2022/04/12 00:05:25;;;;;;;18.95;13.60;;;11.40;99.90;;;11.67;59.38;100893.84;5075788;28;20044;-63
2022/04/12 00:07:59;;;;;;;16.58;13.55;;;11.40;99.90;;;11.70;59.04;100904.41;5075873;28;20106;-62
2022/04/12 00:10:30;;;;;;;16.23;13.05;;;11.40;99.90;;;11.72;58.87;100903.50;5074738;28;20166;-63
2022/04/12 00:13:00;;;;;;;16.85;12.80;;;11.50;99.90;;;11.83;58.59;100902.53;5075737;28;20044;-63
2022/04/12 00:15:29;;;;;;;18.27;13.85;;;11.50;99.90;;;11.76;58.48;100899.06;5076019;28;20048;-62
2022/04/12 00:20:44;;;;;;;15.05;12.43;;;11.50;99.90;;;11.43;59.00;100879.00;5075734;28;20041;-63
2022/04/12 00:23:14;;;;;;;15.10;12.80;;;11.40;99.90;;;11.11;58.91;100798.91;5075519;28;20417;-63
2022/04/12 00:25:44;;;;;;;16.98;13.25;;;11.40;99.90;;;11.60;58.82;100908.88;5075539;28;20071;-63
2022/04/12 00:28:15;;;;;;;15.48;12.73;;;11.40;99.90;;;11.61;58.71;100904.47;5075455;28;20040;-63
2022/04/12 00:30:44;;;;;;;16.27;12.68;;;11.40;99.90;;;11.62;58.79;100899.16;5075438;28;20048;-63
2022/04/12 00:33:13;;;;;;;15.95;13.02;;;11.40;99.90;;;11.74;58.55;100900.84;5075293;28;20036;-63
2022/04/12 00:35:41;;;;;;;15.75;12.35;;;11.40;99.90;;;11.26;58.08;100813.81;5075292;28;20438;-63
2022/04/12 00:38:22;;;;;;;16.58;12.55;;;11.50;99.90;;;11.71;58.20;100903.53;5075224;28;20049;-63
2022/04/12 00:40:53;;;;;;;16.65;12.80;;;11.50;99.90;;;11.60;58.46;100898.28;5075207;28;20048;-63
2022/04/12 00:43:27;;;;;;;15.63;13.15;;;11.40;99.90;;;11.52;59.13;100894.81;5075472;28;20040;-63
2022/04/12 00:46:00;;;;;;;16.08;13.80;;;11.30;99.90;;;11.47;59.17;100891.31;5075429;28;20052;-63
2022/04/12 00:48:29;;;;;;;14.88;12.23;;;11.30;99.90;;;11.55;59.05;100884.19;5075110;28;20044;-63
2022/04/12 00:50:58;;;;;;;17.15;12.82;;;11.30;99.90;;;11.56;59.48;100871.81;5075034;28;20044;-63
2022/04/12 00:53:28;;;;;;;16.10;12.90;;;11.30;99.90;;;11.66;58.64;100874.41;5074902;28;20037;-63
2022/04/12 00:55:59;;;;;;;16.53;13.03;;;11.40;99.90;;;11.54;58.96;100871.84;5075146;28;20131;-63
2022/04/12 00:58:28;;;;;;;;;;;11.30;99.90;;;11.60;58.89;100879.72;5074724;28;20588;-63
2022/04/12 01:00:57;;;;;;;15.63;12.68;;;11.40;99.90;;;11.53;58.93;100896.59;5074713;28;20366;-62
2022/04/12 01:03:26;;;;;;;17.38;12.80;;;11.30;99.90;;;11.45;59.19;100871.91;5056982;28;20071;-63
2022/04/12 01:05:55;;;;;;;16.90;12.40;;;11.20;99.90;;;11.47;59.47;100863.94;5074682;28;20044;-63
2022/04/12 01:08:23;;;;;;;16.33;12.82;;;11.20;99.90;;;11.54;58.78;100852.41;5056648;28;20375;-63
2022/04/12 01:10:53;;;;;;;16.23;13.32;;;11.30;99.90;;;11.56;59.00;100851.50;5074590;28;20037;-63
2022/04/12 01:13:23;;;;;;;18.25;13.27;;;11.30;99.90;;;11.58;58.78;100862.09;5074881;28;20463;-63
2022/04/12 01:15:51;;;;;;;15.67;12.83;;;11.40;99.90;;;11.58;58.69;100873.56;5074538;28;20056;-63
2022/04/12 01:18:20;;;;;;;15.70;12.75;;;11.40;99.90;;;11.73;58.50;100873.47;5074449;28;20626;-62
2022/04/12 01:20:48;;;;;;;15.27;12.73;;;11.40;99.90;;;11.64;58.61;100862.91;5074588;28;20462;-63
2022/04/12 01:23:21;;;;;;;17.95;12.70;;;11.40;99.90;;;11.59;58.54;100866.50;5074285;28;20142;-63
2022/04/12 01:25:51;;;;;;;17.25;13.02;;;11.40;99.90;;;11.45;59.19;100861.31;5056612;28;20072;-62
2022/04/12 01:28:20;;;;;;;18.08;13.48;;;11.20;99.90;;;11.43;58.64;100833.97;5074217;28;20055;-62
2022/04/12 01:30:50;;;;;;;15.95;13.30;;;11.40;99.90;;;11.50;59.28;100871.84;5074139;28;20127;-63
2022/04/12 01:33:18;;;;;;;17.05;12.68;;;11.20;99.90;;;11.71;58.69;100872.59;5074006;28;20040;-62
2022/04/12 01:35:47;;;;;;;19.75;12.40;;;11.40;99.90;;;11.61;58.52;100859.44;5074308;28;20045;-63
2022/04/12 01:38:15;;;;;;;14.27;12.75;;;11.40;99.90;;;11.68;58.52;100856.75;5074023;28;20545;-63
2022/04/12 01:40:44;;;;;;;15.35;12.23;;;11.40;99.90;;;11.54;58.73;100850.63;5073864;28;20070;-63
2022/04/12 01:43:14;;;;;;;14.85;12.43;;;11.40;99.90;;;10.95;59.09;100770.84;5073891;28;20093;-62
2022/04/12 01:45:42;;;;;;;16.75;12.73;;;11.20;99.90;;;11.43;59.22;100848.97;5074216;28;20482;-63
2022/04/12 01:48:11;;;;;;;15.38;13.23;;;11.20;99.90;;;11.29;59.32;100848.19;5074378;28;20048;-63
2022/04/12 01:50:39;;;;;;;20.58;13.18;;;11.20;99.90;;;11.43;59.32;100847.22;5073843;28;20063;-62
2022/04/12 01:53:08;;;;;;;14.70;12.63;;;11.20;99.90;;;10.94;59.21;100762.91;5072773;28;20132;-63
2022/04/12 01:55:36;;;;;;;16.65;14.07;;;11.20;99.90;;;11.48;59.29;100857.75;5056025;28;20450;-63
2022/04/12 01:58:05;;;;;;;15.23;11.90;;;11.20;99.90;;;11.53;59.01;100855.97;5073874;28;20048;-63
2022/04/12 02:00:36;;;;;;;17.05;12.90;;;11.30;99.90;;;11.30;59.36;100845.56;5073659;28;20045;-63
2022/04/12 02:03:05;;;;;;;18.55;12.82;;;11.20;99.90;;;11.14;60.02;100856.25;5073826;28;20105;-64
2022/04/12 02:05:34;;;;;;;14.52;12.35;;;11.00;99.90;;;11.09;60.21;100850.13;5073564;28;20067;-63
2022/04/12 02:08:03;;;;;;;15.90;12.23;;;10.90;99.90;;;11.15;60.08;100844.78;5073468;28;20383;-63
2022/04/12 02:10:31;;;;;;;17.60;12.45;;;10.90;99.90;;;11.09;60.33;100831.59;5073011;28;20064;-63
2022/04/12 02:13:00;;;;;;;14.55;12.20;;;10.90;99.90;;;11.02;60.44;100825.47;5055711;28;20048;-63
2022/04/12 02:15:28;;;;;;;18.77;13.00;;;10.80;99.90;;;10.92;60.61;100815.81;5073395;28;20583;-63
2022/04/12 02:17:58;;;;;;;16.20;11.85;;;10.70;99.90;;;11.07;60.69;100814.84;5073560;28;20146;-63
2022/04/12 02:20:28;;;;;;;20.77;12.23;;;10.80;99.90;;;11.13;60.33;100814.81;5073625;28;20048;-63
2022/04/12 02:22:56;;;;;;;14.48;11.82;;;10.90;99.90;;;11.05;60.60;100817.50;5073159;28;20114;-63
2022/04/12 02:25:24;;;;;;;15.45;12.73;;;10.80;99.90;;;10.93;60.96;100816.72;5073463;28;20109;-63
2022/04/12 02:27:53;;;;;;;15.38;12.38;;;10.70;99.90;;;10.70;61.58;100811.56;5073510;28;20070;-63
2022/04/12 02:30:22;;;;;;;15.30;12.57;;;10.60;99.90;;;10.57;61.77;100807.22;5073166;28;20071;-63
2022/04/12 02:32:50;;;;;;;14.10;11.95;;;10.40;99.90;;;10.48;62.34;100810.81;5073419;28;20076;-63
2022/04/12 02:35:20;;;;;;;14.30;11.40;;;10.30;99.90;;;10.70;61.75;100806.28;5073435;28;20189;-62
2022/04/12 02:37:48;;;;;;;13.03;11.70;;;10.40;99.90;;;10.86;61.13;100782.34;5073176;28;20127;-63
2022/04/12 02:40:17;;;;;;;14.38;11.52;;;10.60;99.90;;;11.09;60.61;100791.91;5073324;28;20477;-63
2022/04/12 02:42:45;;;;;;;14.05;12.63;;;10.80;99.90;;;11.09;60.63;100791.91;5073175;28;20056;-63
2022/04/12 02:45:14;;;;;;;19.17;13.05;;;10.80;99.90;;;10.99;60.64;100791.09;5073281;28;20044;-63
2022/04/12 02:47:42;;;;;;;15.65;12.13;;;10.80;99.90;;;10.98;60.41;100793.72;5072922;28;20474;-63
2022/04/12 02:50:11;;;;;;;15.48;11.88;;;10.80;99.90;;;10.61;60.44;100705.81;5072962;28;20460;-63
2022/04/12 02:52:41;;;;;;;15.07;11.98;;;10.80;99.90;;;11.17;59.98;100787.44;5073485;28;20060;-63
2022/04/12 02:55:10;;;;;;;15.35;11.82;;;11.00;99.90;;;11.12;59.99;100787.44;5073199;28;20547;-63
2022/04/12 02:57:38;;;;;;;16.40;11.98;;;10.90;99.90;;;11.27;60.23;100791.72;5072866;28;20051;-63
2022/04/12 03:00:08;;;;;;;14.68;11.52;;;11.00;99.90;;;11.44;59.52;100789.84;5073084;28;20048;-62
2022/04/12 03:02:36;;;;;;;13.35;11.95;;;11.10;99.90;;;11.39;59.24;100791.63;5071764;28;20435;-63
2022/04/12 03:05:06;;;;;;;15.88;12.00;;;11.20;99.90;;;11.33;59.33;100779.31;5073075;28;20048;-63
2022/04/12 03:07:35;;;;;;;18.05;12.23;;;11.20;99.90;;;11.39;59.44;100792.50;5071827;28;20101;-62
2022/04/12 03:10:05;;;;;;;14.52;11.15;;;11.20;99.90;;;11.27;59.73;100792.63;5073033;28;20071;-63
2022/04/12 03:12:34;;;;;;;13.85;12.38;;;11.00;99.90;;;11.24;59.65;100787.38;5073092;28;20048;-63
2022/04/12 03:15:02;;;;;;;19.85;11.75;;;11.10;99.90;;;11.16;59.72;100783.91;5072776;28;20140;-63
2022/04/12 03:17:31;;;;;;;13.60;11.60;;;11.00;99.90;;;10.94;60.17;100792.03;5071731;28;20406;-63
2022/04/12 03:19:59;;;;;;;15.50;12.23;;;10.80;99.90;;;10.78;60.48;100788.59;5073330;28;20063;-63
2022/04/12 03:22:28;;;;;;;14.25;11.65;;;10.60;99.90;;;10.85;60.89;100785.00;5076567;28;20101;-63
2022/04/12 03:24:56;;;;;;;17.40;12.20;;;10.60;99.90;;;11.06;60.40;100784.84;5076576;28;20075;-63
2022/04/12 03:27:26;;;;;;;18.83;10.98;;;10.70;99.90;;;10.96;60.18;100769.03;5076505;28;20473;-62
2022/04/12 03:29:54;;;;;;;18.67;11.70;;;10.80;99.90;;;10.84;60.67;100777.94;5076545;28;20171;-63
2022/04/12 03:32:23;;;;;;;14.73;11.77;;;10.70;99.90;;;10.87;60.61;100770.00;5058756;28;20049;-63
2022/04/12 03:34:51;;;;;;;14.30;11.50;;;10.70;99.90;;;11.04;60.57;100791.91;5055230;28;20057;-62
2022/04/12 03:37:20;;;;;;;15.35;11.27;;;10.70;99.90;;;10.92;60.73;100793.78;5056403;28;20045;-63
2022/04/12 03:39:50;;;;;;;14.88;11.82;;;10.70;99.90;;;10.82;60.75;100808.81;5055371;28;20429;-63
2022/04/12 03:42:19;;;;;;;15.18;11.48;;;10.60;99.90;;;10.80;60.41;100803.56;5056479;28;20052;-63
2022/04/12 03:44:51;;;;;;;13.60;11.50;;;10.60;99.90;;;10.74;60.81;100802.72;5056258;28;20045;-63
2022/04/12 03:47:19;;;;;;;16.85;12.00;;;10.50;99.90;;;10.89;60.56;100810.56;5056284;28;20098;-63
2022/04/12 03:49:48;;;;;;;14.38;11.55;;;10.60;99.90;;;10.81;60.85;100812.38;5056174;28;20037;-63
2022/04/12 03:52:17;;;;;;;15.40;11.32;;;10.60;99.90;;;10.98;60.53;100817.53;5056135;28;20450;-63
2022/04/12 03:54:46;;;;;;;14.37;11.03;;;10.60;99.90;;;10.87;60.63;100823.81;5056647;28;20053;-62
2022/04/12 03:57:15;;;;;;;16.55;11.48;;;10.60;99.90;;;10.84;60.55;100813.22;5071732;28;20079;-62
2022/04/12 03:59:44;;;;;;;15.20;10.95;;;10.60;99.90;;;10.83;60.57;100806.19;5056243;28;20379;-63
2022/04/12 04:02:13;;;;;;;14.52;11.45;;;10.60;99.90;;;10.35;60.54;100721.88;5055844;28;20045;-63
2022/04/12 04:04:42;;;;;;;14.73;11.55;;;10.60;99.90;;;10.59;61.30;100784.28;5056204;28;20411;-62
2022/04/12 04:07:10;;;;;;;15.60;11.68;;;10.50;99.90;;;10.68;61.35;100786.91;5055830;28;20422;-64
2022/04/12 04:09:39;;;;;;;16.15;11.15;;;10.40;99.90;;;10.43;61.59;100740.34;5056250;28;20099;-63
2022/04/12 04:12:09;;;;;;;13.32;11.68;;;10.40;99.90;;;10.47;61.73;100758.78;5055942;28;20051;-63
2022/04/12 04:14:39;;;;;;;;;;;10.30;99.90;;;10.33;62.42;100749.19;5056125;28;20522;-62
2022/04/12 04:17:08;;;;;;;14.15;10.90;;;10.20;99.90;;;10.16;62.78;100746.66;5055900;28;20374;-62
2022/04/12 04:19:37;;;;;;;17.30;10.75;;;10.00;99.90;;;10.26;62.77;100747.47;5055574;28;20065;-62
2022/04/12 04:22:06;;;;;;;12.88;10.30;;;10.00;99.90;;;10.27;62.45;100754.50;5055574;28;20449;-63
2022/04/12 04:24:36;;;;;;;15.25;11.93;;;10.10;99.90;;;10.31;62.41;100766.81;5055710;28;20410;-63
2022/04/12 04:27:05;;;;;;;16.38;11.18;;;10.10;99.90;;;10.22;62.64;100749.22;5055459;28;20045;-64
2022/04/12 04:29:35;;;;;;;16.53;10.80;;;10.00;99.90;;;10.18;62.87;100754.56;5055459;28;20056;-63
2022/04/12 04:32:05;;;;;;;16.08;11.43;;;10.00;99.90;;;10.17;62.77;100758.06;5053394;28;20390;-63
2022/04/12 04:34:33;;;;;;;16.92;10.88;;;9.90;99.90;;;10.16;63.22;100754.56;5066352;28;20056;-63
2022/04/12 04:37:03;;;;;;;14.43;10.95;;;10.00;99.90;;;10.26;63.00;100763.34;5074223;28;20406;-63
2022/04/12 04:39:31;;;;;;;14.85;12.30;;;10.00;99.90;;;10.19;62.97;100746.63;5075546;28;20037;-63
2022/04/12 04:42:00;;;;;;;14.32;11.18;;;10.00;99.90;;;10.38;63.01;100769.44;5075177;28;20490;-63
2022/04/12 04:44:28;;;;;;;14.43;11.35;;;10.10;99.90;;;10.30;62.86;100759.78;5075273;28;20049;-62
2022/04/12 04:46:57;;;;;;;13.85;11.70;;;10.10;99.90;;;10.25;62.84;100762.47;5075098;28;20070;-63
2022/04/12 04:49:25;;;;;;;12.48;10.77;;;10.10;99.90;;;10.13;63.45;100758.97;5057174;28;20445;-63
2022/04/12 04:51:54;;;;;;;14.15;11.15;;;10.00;99.90;;;10.09;63.67;100752.78;5075251;28;20067;-63
2022/04/12 04:54:23;;;;;;;18.70;10.88;;;9.90;99.90;;;10.39;62.87;100757.97;5074950;28;20051;-63
2022/04/12 04:56:52;;;;;;;14.05;11.02;;;10.10;99.90;;;10.26;62.53;100763.34;5074772;28;20459;-63
2022/04/12 04:59:20;;;;;;;12.52;11.15;;;10.10;99.90;;;10.33;62.98;100758.00;5074816;28;20060;-63
2022/04/12 05:01:55;;;;;;;13.75;11.13;;;10.10;99.90;;;10.14;63.09;100747.53;5074863;28;20040;-63
2022/04/12 05:04:23;;;;;;;13.45;10.75;;;10.00;99.90;;;10.24;63.11;100760.69;5074820;28;20049;-63
2022/04/12 05:06:52;;;;;;;13.50;10.70;;;10.00;99.90;;;10.25;63.14;100766.84;5074380;28;20037;-63
2022/04/12 05:09:20;;;;;;;15.82;11.93;;;10.00;99.90;;;10.20;63.12;100776.59;5074435;28;20094;-63
2022/04/12 05:11:50;;;;;;;12.15;10.30;;;10.00;99.90;;;10.25;62.71;100777.44;5075074;28;20053;-63
2022/04/12 05:14:18;;;;;;;15.87;10.80;;;10.00;99.90;;;10.10;62.44;100744.03;5074851;28;20063;-63
2022/04/12 05:16:47;;;;;;;15.40;11.00;;;10.10;99.90;;;10.17;63.07;100782.75;5074787;28;20115;-63
2022/04/12 05:19:15;;;;;;;13.98;11.10;;;10.00;99.90;;;10.31;62.48;100796.78;5074703;28;20558;-63
2022/04/12 05:21:43;;;;;;;13.15;10.80;;;10.00;99.90;;;10.36;62.76;100792.34;5074333;28;20064;-63
2022/04/12 05:24:12;;;;;;;13.00;10.80;;;10.10;99.90;;;10.47;62.01;100789.66;5074334;28;20032;-63
2022/04/12 05:26:41;;;;;;;14.85;10.70;;;10.20;99.90;;;10.51;62.33;100791.41;5074264;28;20044;-63
2022/04/12 05:29:10;;;;;;;13.82;10.43;;;10.30;99.90;;;10.33;62.11;100754.47;5074372;28;20037;-63
2022/04/12 05:31:39;;;;;;;12.07;9.93;;;10.30;99.90;;;10.46;62.15;100766.75;5074363;28;20044;-64
2022/04/12 05:34:07;;;;;;;14.38;10.75;;;10.30;99.90;;;10.43;62.57;100772.06;5074429;28;20058;-65
2022/04/12 05:36:36;;;;;;;14.50;10.55;;;10.20;99.90;;;10.57;62.28;100771.06;5073838;28;20524;-65
2022/04/12 05:39:04;;;;;;;14.60;11.10;;;10.30;99.90;;;10.73;62.09;100766.56;5073871;28;20041;-65
2022/04/12 05:41:32;;;;;;;14.45;10.32;;;10.40;99.90;;;10.82;61.67;100766.50;5074103;28;20127;-69
2022/04/12 05:44:01;;;;;;;14.57;10.55;;;10.60;99.90;;;10.92;61.49;100769.97;5073872;28;20044;-66
2022/04/12 05:46:30;;;;;;;15.13;10.63;;;10.70;99.90;;;10.98;61.59;100764.63;5073838;28;20086;-65
2022/04/12 05:48:59;;;;;;;15.60;10.80;;;10.70;99.90;;;10.97;61.48;100765.53;5074099;28;20455;-65
2022/04/12 05:51:27;;;;;;;16.08;10.80;;;10.80;99.90;;;10.87;61.56;100778.84;5073803;28;20290;-63
2022/04/12 05:53:56;;;;;;;14.20;10.90;;;10.70;99.90;;;11.11;61.28;100769.78;5073585;28;20081;-63
2022/04/12 05:56:24;;;;;;;17.92;10.90;;;10.80;99.90;;;10.96;61.81;100763.75;5073305;28;20132;-63
2022/04/12 05:58:52;;;;;;;13.35;10.80;;;10.80;99.90;;;11.03;61.51;100758.44;5073868;28;20093;-63
2022/04/12 06:01:21;;;;;;;13.18;10.82;;;10.80;99.90;;;11.20;61.42;100761.78;5073711;28;20072;-64
2022/04/12 06:03:50;;;;;;;14.32;10.32;;;10.90;99.90;;;11.13;61.34;100723.00;5073477;28;20052;-62
2022/04/12 06:06:19;;;;;;;18.60;10.65;;;11.00;99.90;;;11.32;60.97;100780.22;5072450;28;20122;-64
2022/04/12 06:08:47;;;;;;;16.65;10.68;;;11.00;99.90;;;11.35;61.38;100774.00;5073305;28;20094;-69
2022/04/12 06:11:16;;;;;;;15.32;11.13;;;11.10;99.90;;;11.24;61.68;100776.78;5073601;28;20090;-65
2022/04/12 06:13:44;;;;;;;16.42;11.00;;;11.00;99.90;;;11.09;61.35;100741.59;5073643;28;20489;-66
2022/04/12 06:16:13;;;;;;;22.05;11.48;;;11.00;99.90;;;11.21;61.66;100771.47;5073152;28;20094;-68
2022/04/12 06:18:41;;;;;;;13.77;10.77;;;11.00;99.90;;;11.25;61.70;100778.50;5073511;28;20520;-65
2022/04/12 06:21:11;;;;;;;14.98;10.93;;;11.00;99.90;;;11.56;61.38;100774.69;5073709;28;20383;-68
2022/04/12 06:23:40;;;;;;;14.98;11.05;;;11.30;99.90;;;11.51;61.51;100781.81;5055601;28;20052;-69
2022/04/12 06:26:08;;;;;;;18.15;10.50;;;11.20;99.90;;;11.44;61.38;100787.19;5055579;28;20097;-64
2022/04/12 06:28:37;;;;;;;14.80;10.90;;;11.20;99.90;;;11.51;61.88;100788.88;5073265;28;20114;-64
2022/04/12 06:31:05;;;;;;;13.85;11.27;;;11.30;99.90;;;11.70;61.46;100772.81;5072594;28;20060;-64
2022/04/12 06:33:34;;;;;;;14.57;11.85;;;11.40;99.90;;;11.86;60.47;100773.53;5072395;28;20048;-64
2022/04/12 06:36:03;;;;;;;15.80;10.77;;;11.60;99.90;;;11.80;60.84;100749.75;5071172;28;20056;-65
2022/04/12 06:38:34;;;;;;;14.02;11.15;;;11.60;99.90;;;11.99;60.37;100774.25;5072591;28;20068;-65
2022/04/12 06:41:02;;;;;;;12.93;11.07;;;11.70;99.90;;;11.98;60.30;100785.75;5072559;28;20044;-64
2022/04/12 06:43:30;;;;;;;13.57;10.73;;;11.70;99.90;;;11.86;60.61;100777.94;5054590;28;20044;-64
2022/04/12 06:45:59;;;;;;;16.33;11.70;;;11.60;99.90;;;11.93;60.52;100758.41;5072711;28;20248;-65
2022/04/12 06:48:29;;;;;;;19.25;11.02;;;11.60;99.90;;;11.72;60.38;100752.47;5072432;28;20052;-64
2022/04/12 06:51:03;;;;;;;15.13;11.73;;;11.60;99.90;;;11.97;60.90;100770.75;5072780;28;20064;-64
2022/04/12 06:53:34;;;;;;;15.88;11.10;;;11.60;99.90;;;12.11;61.08;100782.94;5072396;28;20140;-65
2022/04/12 06:56:02;;;;;;;16.27;11.55;;;11.80;99.90;;;12.29;60.88;100769.44;5072390;28;20052;-65
2022/04/12 06:58:33;;;;;;;16.20;10.93;;;12.00;99.90;;;12.13;59.79;100769.66;5054526;28;20049;-65
2022/04/12 07:01:01;;;;;;;16.00;10.90;;;11.90;99.90;;;12.14;61.01;100779.38;5054630;28;20040;-65
2022/04/12 07:03:35;;;;;;;13.77;11.00;;;11.90;99.90;;;12.21;60.54;100776.66;5072372;28;20416;-69
2022/04/12 07:06:03;;;;;;;19.73;10.50;;;11.90;99.90;;;12.10;60.75;100778.53;5071978;28;20056;-64
2022/04/12 07:08:33;;;;;;;15.82;11.75;;;11.80;99.90;;;12.04;61.40;100768.00;5071849;28;20122;-65
2022/04/12 07:11:01;;;;;;;17.17;11.93;;;11.80;99.90;;;12.25;61.90;100782.78;5071950;28;20119;-70
2022/04/12 07:13:30;;;;;;;17.50;10.70;;;11.90;99.90;;;12.21;60.58;100787.25;5071911;28;20049;-66
2022/04/12 07:15:58;;;;;;;15.18;10.43;;;12.00;99.90;;;12.40;61.94;100788.78;5072388;28;20036;-67
2022/04/12 07:18:27;;;;;;;15.88;10.70;;;12.00;99.90;;;12.38;61.13;100787.91;5072406;28;20474;-65
2022/04/12 07:20:55;;;;;;;17.05;11.30;;;12.10;99.90;;;12.45;60.90;100778.06;5072454;28;20127;-66
2022/04/12 07:23:24;;;;;;;21.33;11.93;;;12.10;99.90;;;12.65;61.03;100784.88;5072062;28;20040;-66
2022/04/12 07:25:56;;;;;;;14.05;10.98;;;12.30;99.90;;;12.60;60.06;100772.59;5072025;28;20058;-66
2022/04/12 07:28:24;;;;;;;13.05;10.48;;;12.30;99.90;;;12.81;59.64;100788.19;5071943;28;20501;-65
2022/04/12 07:30:53;;;;;;;19.45;11.27;;;12.50;99.90;;;12.96;60.11;100785.28;5071989;28;20064;-66
2022/04/12 07:33:27;;;;;;;15.23;10.80;;;12.60;99.90;;;12.89;60.36;100780.97;5072095;28;20066;-65
2022/04/12 07:35:55;;;;;;;16.45;11.13;;;12.60;99.90;;;13.02;59.54;100784.31;5032127;28;20076;-66
2022/04/12 07:38:24;;;;;;;12.85;10.63;;;12.70;99.90;;;13.04;61.15;100759.53;5032073;28;20050;-67
2022/04/12 07:40:53;;;;;;;14.50;10.55;;;12.90;99.90;;;13.41;59.85;100768.63;5031941;28;20124;-66
2022/04/12 07:43:23;;;;;;;12.70;9.85;;;13.10;99.90;;;13.46;59.18;100773.84;5032007;28;20123;-68
2022/04/12 07:45:51;;;;;;;15.27;10.68;;;13.10;99.90;;;13.65;58.33;100764.66;5030841;28;20045;-67
2022/04/12 07:48:40;;;;;;;12.65;9.55;;;13.30;99.90;;;13.74;57.77;100767.16;5031888;28;20092;-66
2022/04/12 07:51:09;;;;;;;12.90;9.43;;;13.40;99.90;;;13.91;57.84;100770.34;5031884;28;20557;-67
2022/04/12 07:53:38;;;;;;;13.27;9.80;;;13.60;99.90;;;14.07;56.78;100774.44;5032115;28;20046;-67
2022/04/12 07:56:07;;;;;;;12.73;9.05;;;13.70;99.90;;;14.07;55.73;100785.09;5032001;28;20467;-67
2022/04/12 07:58:37;;;;;;;11.75;8.75;;;13.80;99.90;;;13.96;55.42;100792.41;5030620;28;20140;-67
2022/04/12 08:01:05;;;;;;;17.88;8.50;;;13.80;99.90;;;14.16;56.27;100802.66;5031960;28;20037;-65
2022/04/12 08:03:34;;;;;;;14.38;10.25;;;13.80;99.90;;;14.25;55.82;100815.75;5031831;28;20120;-66
2022/04/12 08:06:03;;;;;;;10.90;9.02;;;13.90;99.90;;;14.40;57.36;100811.03;5031718;28;20077;-64
2022/04/12 08:08:32;;;;;;;13.88;8.50;;;14.00;99.90;;;14.66;55.49;100815.81;5050345;28;20136;-67
2022/04/12 08:11:01;;;;;;;13.82;8.90;;;14.30;99.90;;;14.77;55.07;100835.09;5035149;28;20045;-66
2022/04/12 08:13:32;;;;;;;15.38;9.75;;;14.50;99.90;;;14.83;55.66;100826.06;5035565;28;20125;-65
2022/04/12 08:16:02;;;;;;;13.10;9.25;;;14.50;99.90;;;14.85;55.18;100806.50;5035131;28;20072;-66
2022/04/12 08:18:31;;;;;;;13.98;9.82;;;14.50;99.90;;;14.74;55.44;100805.00;5035175;28;20042;-65
2022/04/12 08:21:00;;;;;;;12.35;10.38;;;14.50;99.90;;;14.97;55.89;100800.91;5035015;28;20080;-65
2022/04/12 08:23:29;;;;;;;15.60;9.90;;;14.60;99.90;;;15.14;54.58;100803.16;5035541;28;20152;-65
2022/04/12 08:25:57;;;;;;;12.23;9.80;;;14.80;99.90;;;15.07;53.96;100806.88;5035148;28;20076;-65
2022/04/12 08:28:25;;;;;;;15.50;9.50;;;14.80;99.90;;;15.22;54.20;100812.72;5034815;28;20107;-62
2022/04/12 08:30:54;;;;;;;27.85;18.60;;;14.90;99.90;;;15.33;54.86;100816.00;5034821;28;20037;-61
2022/04/12 08:33:25;;;;;;;15.48;9.52;;;15.00;99.90;;;15.64;56.52;100797.44;5033878;28;20053;-60
2022/04/12 08:35:54;;;;;;;15.32;11.00;;;15.30;99.90;;;15.55;53.58;100796.81;5034852;28;20050;-61
2022/04/12 08:38:22;;;;;;;12.70;9.60;;;15.30;99.90;;;15.73;54.91;100793.69;5033744;28;20449;-61
2022/04/12 08:40:54;;;;;;;18.55;9.95;;;15.40;99.90;;;15.71;52.92;100780.41;5034960;28;20049;-61
2022/04/12 08:43:25;;;;;;;12.70;9.95;;;15.50;99.90;;;15.51;52.81;100785.38;5034713;28;20049;-61
2022/04/12 08:45:54;;;;;;;;;;;15.30;99.90;;;15.79;54.04;100790.84;5035550;28;20103;-61
2022/04/12 08:48:24;;;;;;;11.32;8.80;;;15.40;99.90;;;15.88;54.47;100794.16;5035051;28;19920;-61
2022/04/12 08:50:54;;;;;;;14.85;10.13;;;15.50;99.90;;;15.82;52.94;100780.97;5035111;28;20479;-61
2022/04/12 08:53:23;;;;;;;13.85;9.63;;;15.60;99.90;;;15.85;53.72;100767.53;5035062;28;20099;-61
2022/04/12 08:55:52;;;;;;;14.80;10.35;;;15.60;99.90;;;16.15;55.36;100768.47;5034787;28;20393;-61
2022/04/12 08:58:21;;;;;;;13.98;10.32;;;15.70;99.90;;;16.13;53.06;100757.84;5034833;28;20076;-61
2022/04/12 09:00:50;;;;;;;13.38;10.63;;;15.80;99.90;;;16.32;52.99;100766.19;5035387;28;20096;-61
2022/04/12 09:03:19;;;;;;;11.75;9.13;;;15.90;99.90;;;16.47;53.15;100773.78;5033853;28;20144;-61
2022/04/12 09:05:49;;;;;;;14.38;10.10;;;16.20;99.90;;;16.39;52.96;100754.44;5034693;28;20071;-61
2022/04/12 09:08:28;;;;;;;17.08;10.10;;;16.10;99.90;;;16.64;54.33;100754.59;5034942;28;20072;-61
2022/04/12 09:11:00;;;;;;;15.55;10.77;;;16.30;99.90;;;16.60;53.70;100744.91;5050399;28;20045;-61
2022/04/12 09:13:30;;;;;;;10.48;8.77;;;16.30;99.90;;;16.52;52.06;100734.47;5033731;28;20072;-67
2022/04/12 09:16:00;;;;;;;10.87;9.03;;;16.30;99.90;;;16.73;52.72;100735.59;5034590;28;20571;-65
2022/04/12 09:18:46;;;;;;;13.07;9.68;;;16.40;99.90;;;16.88;51.61;100744.00;5034438;28;20069;-64
2022/04/12 09:21:19;;;;;;;11.95;9.45;;;16.60;99.90;;;16.86;52.00;100743.16;5034571;28;20041;-62
2022/04/12 09:23:50;;;;;;;12.88;9.48;;;16.60;99.90;;;17.10;52.26;100741.50;5034477;28;20091;-61
2022/04/12 09:26:26;;;;;;;11.50;9.27;;;16.70;99.90;;;17.06;51.19;100742.53;5034546;28;20041;-62
2022/04/12 09:28:57;;;;;;;11.23;9.02;;;16.80;99.90;;;17.14;51.93;100735.13;5034632;28;20049;-62
2022/04/12 09:31:26;;;;;;;;;;;16.80;99.90;;;17.20;52.94;100747.41;5034699;28;20069;-62
2022/04/12 09:33:56;;;;;;;11.32;8.82;;;16.90;99.90;;;17.28;51.14;100758.72;5041333;28;19924;-61
2022/04/12 09:36:26;;;;;;;12.82;9.48;;;17.00;99.90;;;17.37;51.80;100753.06;5074408;28;20090;-62
2022/04/12 09:38:59;;;;;;;13.23;9.33;;;17.00;99.90;;;17.44;51.88;100743.91;5074549;28;20048;-62
2022/04/12 09:41:29;;;;;;;15.30;10.23;;;17.10;99.90;;;17.65;51.06;100735.19;5073968;28;20804;-62
2022/04/12 09:44:07;;;;;;;12.95;9.30;;;17.30;99.90;;;17.85;50.79;100738.00;5074158;28;20394;-62
2022/04/12 09:46:37;;;;;;;13.50;9.45;;;17.50;99.90;;;17.95;51.64;100736.72;5073820;28;20047;-62
2022/04/12 09:49:07;;;;;;;12.00;8.55;;;17.60;99.90;;;17.76;50.43;100730.31;5073918;28;20405;-63
2022/04/12 09:51:37;;;;;;;12.20;9.18;;;17.50;99.90;;;17.99;52.12;100723.19;5074400;28;20051;-62
2022/04/12 09:54:08;;;;;;;14.15;8.45;;;17.60;99.90;;;18.19;51.88;100718.88;5073880;28;20052;-62
2022/04/12 09:56:39;;;;;;;16.42;9.32;;;17.80;99.90;;;18.24;51.31;100717.78;5073803;28;20410;-62
2022/04/12 09:59:13;;;;;;;13.35;9.45;;;18.00;99.90;;;18.09;51.57;100680.88;5074021;28;20072;-62
2022/04/12 10:01:42;;;;;;;36.58;19.92;;;17.90;99.90;;;18.32;51.33;100704.97;5073752;28;20465;-62
2022/04/12 10:04:15;;;;;;;21.90;15.32;;;18.10;99.90;;;17.95;50.26;100708.19;5073494;28;20051;-61
2022/04/12 10:06:46;;;;;;;12.68;8.05;;;17.70;99.90;;;17.93;50.51;100693.97;5073502;28;20040;-62
2022/04/12 10:09:17;;;;;;;12.90;8.85;;;17.70;99.90;;;18.23;51.58;100672.31;5073573;28;20036;-62
2022/04/12 10:11:46;;;;;;;15.73;10.45;;;17.90;99.90;;;17.94;51.25;100674.28;5073471;28;20044;-62
2022/04/12 10:14:16;;;;;;;14.60;9.65;;;17.70;99.90;;;17.75;51.74;100653.66;5073217;28;20519;-63